createdAt,value
2018-02-04T04:32:11.612Z,-1.70
2018-02-04T04:34:40.457Z,-1.70
2018-02-04T04:37:08.163Z,-1.50
2018-02-04T04:39:35.879Z,-1.50
2018-02-04T04:42:03.608Z,-1.40
2018-02-04T04:44:31.299Z,-1.50
2018-02-04T04:46:58.988Z,-1.50
2018-02-04T04:49:26.696Z,-1.40
2018-02-04T04:51:54.406Z,-1.30
2018-02-04T04:54:22.863Z,-1.30
2018-02-04T04:56:50.587Z,-1.40
2018-02-04T04:59:18.269Z,-1.30
2018-02-04T05:01:45.959Z,-1.20
2018-02-04T05:04:14.454Z,-1.10
2018-02-04T05:06:42.143Z,-1.10
2018-02-04T05:09:09.846Z,-1.00
2018-02-04T05:11:37.951Z,-1.00
2018-02-04T05:14:05.652Z,-1.00
2018-02-04T05:16:33.359Z,-0.90
2018-02-04T05:19:01.847Z,-0.80
2018-02-04T05:21:30.299Z,-0.70
2018-02-04T05:23:58.011Z,-0.70
2018-02-04T05:26:25.771Z,-0.70
2018-02-04T05:28:53.463Z,-0.70
2018-02-04T05:31:21.167Z,-0.70
2018-02-04T05:33:49.667Z,-0.60
2018-02-04T05:36:17.357Z,-0.60
2018-02-04T05:38:45.043Z,-0.60
2018-02-04T05:41:12.756Z,-0.50
2018-02-04T05:43:40.452Z,-0.60
2018-02-04T05:46:08.142Z,-0.60
2018-02-04T05:48:36.009Z,-0.60
2018-02-04T05:51:03.716Z,-0.60
2018-02-04T05:53:31.427Z,-0.50
2018-02-04T05:55:59.160Z,-0.50
2018-02-04T05:58:26.874Z,-0.40
2018-02-04T06:00:54.591Z,-0.50
2018-02-04T06:03:22.279Z,-0.40
2018-02-04T06:05:50.759Z,-0.40
2018-02-04T06:08:19.280Z,-0.40
2018-02-04T06:10:46.964Z,-0.40
2018-02-04T06:13:14.671Z,-0.30
2018-02-04T06:15:43.197Z,-0.20
2018-02-04T06:18:10.893Z,-0.20
2018-02-04T06:20:38.581Z,-0.20
2018-02-04T06:23:08.923Z,-0.20
2018-02-04T06:25:36.639Z,-0.20
2018-02-04T06:28:04.331Z,-0.20
2018-02-04T06:30:32.819Z,-0.10
2018-02-04T06:33:00.523Z,-0.20
2018-02-04T06:35:28.216Z,-0.20
2018-02-04T06:37:56.702Z,-0.10
2018-02-04T06:40:25.164Z,-0.10
2018-02-04T06:42:52.891Z,-0.10
2018-02-04T06:45:20.605Z,-0.10
2018-02-04T06:47:49.078Z,0.00
2018-02-04T06:50:17.596Z,0.10
2018-02-04T06:52:45.291Z,0.10
2018-02-04T06:55:12.998Z,0.10
2018-02-04T06:57:40.752Z,0.10
2018-02-04T07:00:09.231Z,0.10
2018-02-04T07:02:37.711Z,0.10
2018-02-04T07:05:06.220Z,0.20
2018-02-04T07:07:33.927Z,0.10
2018-02-04T07:10:01.638Z,0.20
2018-02-04T07:12:29.349Z,0.20
2018-02-04T07:14:57.039Z,0.20
2018-02-04T07:17:25.547Z,0.10
2018-02-04T07:19:53.252Z,0.10
2018-02-04T07:22:20.968Z,0.10
2018-02-04T07:24:48.683Z,0.20
2018-02-04T07:27:16.393Z,0.30
2018-02-04T07:29:44.103Z,0.40
2018-02-04T07:32:11.821Z,0.50
2018-02-04T07:34:39.583Z,0.40
2018-02-04T07:37:07.268Z,0.40
2018-02-04T07:39:34.967Z,0.30
2018-02-04T07:42:03.464Z,0.20
2018-02-04T07:44:31.915Z,0.10
2018-02-04T07:46:59.606Z,0.10
2018-02-04T07:49:27.336Z,0.10
2018-02-04T07:51:55.032Z,0.20
2018-02-04T07:54:22.743Z,0.20
2018-02-04T07:56:50.503Z,0.10
2018-02-04T07:59:18.971Z,0.20
2018-02-04T08:01:46.687Z,0.20
2018-02-04T08:04:15.187Z,0.20
2018-02-04T08:06:42.900Z,0.20
2018-02-04T08:09:10.583Z,0.20
2018-02-04T08:11:39.060Z,0.20
2018-02-04T08:14:07.515Z,0.30
2018-02-04T08:16:35.260Z,0.20
2018-02-04T08:19:02.971Z,0.20
2018-02-04T08:21:31.443Z,0.30
2018-02-04T08:23:59.920Z,0.40
2018-02-04T08:26:28.371Z,0.40
2018-02-04T08:28:56.123Z,0.40
2018-02-04T08:31:23.839Z,0.50
2018-02-04T08:33:51.527Z,0.50
2018-02-04T08:36:19.278Z,0.50
2018-02-04T08:38:46.972Z,0.60
2018-02-04T08:41:14.675Z,0.70
2018-02-04T08:43:43.152Z,0.70
2018-02-04T08:46:11.606Z,0.80
2018-02-04T08:48:39.351Z,0.80
2018-02-04T08:51:07.040Z,0.80
2018-02-04T08:53:34.747Z,0.80
2018-02-04T08:56:02.484Z,0.80
2018-02-04T08:58:30.936Z,1.10
2018-02-04T09:00:58.623Z,1.10
2018-02-04T09:03:27.120Z,1.30
2018-02-04T09:05:54.824Z,1.40
2018-02-04T09:08:22.539Z,1.40
2018-02-04T09:10:50.251Z,1.30
2018-02-04T09:13:17.939Z,1.20
2018-02-04T09:15:45.672Z,1.20
2018-02-04T09:18:13.399Z,1.20
2018-02-04T09:20:41.099Z,1.10
2018-02-04T09:23:08.803Z,1.30
2018-02-04T09:25:37.303Z,1.40
2018-02-04T09:28:05.012Z,1.40
2018-02-04T09:30:32.723Z,1.40
2018-02-04T09:33:00.448Z,1.60
2018-02-04T09:35:28.137Z,1.80
2018-02-04T09:37:55.840Z,1.60
2018-02-04T09:40:23.601Z,1.40
2018-02-04T09:42:51.313Z,1.40
2018-02-04T09:45:19.771Z,1.50
2018-02-04T09:47:48.373Z,1.50
2018-02-04T09:50:16.068Z,1.20
2018-02-04T09:52:43.769Z,1.30
2018-02-04T09:55:11.512Z,1.00
2018-02-04T09:57:39.964Z,0.90
2018-02-04T10:00:07.965Z,0.90
2018-02-04T10:02:35.746Z,0.80
2018-02-04T10:05:03.467Z,0.90
2018-02-04T10:07:31.182Z,0.80
2018-02-04T10:09:59.714Z,1.20
2018-02-04T10:12:27.424Z,1.20
2018-02-04T10:14:55.880Z,1.20
2018-02-04T10:17:24.017Z,1.10
2018-02-04T10:19:51.776Z,1.20
2018-02-04T10:22:19.468Z,1.20
2018-02-04T10:24:47.300Z,1.40
2018-02-04T10:27:15.011Z,1.30
2018-02-04T10:29:42.728Z,1.20
2018-02-04T10:32:10.472Z,1.00
2018-02-04T10:34:38.529Z,1.10
2018-02-04T10:37:06.266Z,1.00
2018-02-04T10:39:33.999Z,1.00
2018-02-04T10:42:01.955Z,0.90
2018-02-04T10:44:30.856Z,0.80
2018-02-04T10:46:59.355Z,0.80
2018-02-04T10:49:28.030Z,0.80
2018-02-04T10:52:00.947Z,0.70
2018-02-04T10:54:28.649Z,0.80
2018-02-04T10:56:56.358Z,0.80
2018-02-04T10:59:24.120Z,0.80
2018-02-04T11:01:51.831Z,0.60
2018-02-04T11:04:19.519Z,0.70
2018-02-04T11:06:47.380Z,0.60
2018-02-04T11:09:15.071Z,0.70
2018-02-04T11:11:42.755Z,0.70
2018-02-04T11:14:11.259Z,0.70
2018-02-04T11:16:38.971Z,0.60
2018-02-04T11:19:06.717Z,0.70
2018-02-04T11:21:34.439Z,0.70
2018-02-04T11:24:02.123Z,0.70
2018-02-04T11:26:29.875Z,0.80
2018-02-04T11:28:57.595Z,0.80
2018-02-04T11:31:25.299Z,0.80
2018-02-04T11:33:53.129Z,0.90
2018-02-04T11:36:20.860Z,0.80
2018-02-04T11:38:48.574Z,0.80
2018-02-04T11:41:18.292Z,0.80
2018-02-04T11:43:46.278Z,0.80
2018-02-04T11:46:14.011Z,0.70
2018-02-04T11:48:41.803Z,0.70
2018-02-04T11:51:09.511Z,0.70
2018-02-04T11:53:37.199Z,0.60
2018-02-04T11:56:04.931Z,0.70
2018-02-04T11:58:32.623Z,0.70
2018-02-04T12:01:00.383Z,0.60
2018-02-04T12:03:28.102Z,0.50
2018-02-04T12:05:55.792Z,0.50
2018-02-04T12:08:24.307Z,0.70
2018-02-04T12:10:51.999Z,0.70
2018-02-04T12:13:19.709Z,0.70
2018-02-04T12:15:47.444Z,0.60
2018-02-04T12:18:15.161Z,0.60
2018-02-04T12:20:42.856Z,0.70
2018-02-04T12:23:10.608Z,0.70
2018-02-04T12:25:38.303Z,0.70
2018-02-04T12:28:06.770Z,0.40
2018-02-04T12:30:34.609Z,0.40
2018-02-04T12:33:03.068Z,0.40
2018-02-04T12:35:30.779Z,0.40
2018-02-04T12:37:59.302Z,0.40
2018-02-04T12:40:27.016Z,0.40
2018-02-04T12:42:54.704Z,0.40
2018-02-04T12:45:23.208Z,0.40
2018-02-04T12:47:51.367Z,0.30
2018-02-04T12:50:19.107Z,0.50
2018-02-04T12:52:47.594Z,0.70
2018-02-04T12:55:16.107Z,0.70
2018-02-04T12:57:43.819Z,0.70
2018-02-04T13:00:11.558Z,0.70
2018-02-04T13:02:39.271Z,0.60
2018-02-04T13:05:06.964Z,0.60
2018-02-04T13:07:34.718Z,0.70
2018-02-04T13:10:02.435Z,0.70
2018-02-04T13:12:30.912Z,0.90
2018-02-04T13:14:59.447Z,0.90
2018-02-04T13:17:27.163Z,0.80
2018-02-04T13:19:55.640Z,0.80
2018-02-04T13:22:24.143Z,0.80
2018-02-04T13:24:51.850Z,0.80
2018-02-04T13:27:19.575Z,0.80
2018-02-04T13:29:47.296Z,0.80
2018-02-04T13:32:15.005Z,1.00
2018-02-04T13:34:43.476Z,1.10
2018-02-04T13:37:11.210Z,1.00
2018-02-04T13:39:39.836Z,0.80
2018-02-04T13:42:07.601Z,0.80
2018-02-04T13:44:35.285Z,0.80
2018-02-04T13:47:02.979Z,0.70
2018-02-04T13:49:31.487Z,0.60
2018-02-04T13:51:59.199Z,0.60
2018-02-04T13:54:26.899Z,0.60
2018-02-04T13:56:54.624Z,0.70
2018-02-04T13:59:22.327Z,0.70
2018-02-04T14:01:50.043Z,0.70
2018-02-04T14:04:17.756Z,0.80
2018-02-04T14:06:45.467Z,0.80
2018-02-04T14:09:13.165Z,0.70
2018-02-04T14:11:41.654Z,0.50
2018-02-04T14:14:09.507Z,0.50
2018-02-04T14:16:37.984Z,0.60
2018-02-04T14:19:06.507Z,0.50
2018-02-04T14:21:34.215Z,0.50
2018-02-04T14:24:02.677Z,0.40
2018-02-04T14:26:30.408Z,0.40
2018-02-04T14:28:58.868Z,0.30
2018-02-04T14:31:26.585Z,0.20
2018-02-04T14:33:54.328Z,0.20
2018-02-04T14:36:22.011Z,0.20
2018-02-04T14:38:49.729Z,0.10
2018-02-04T14:41:17.488Z,0.20
2018-02-04T14:43:45.498Z,0.20
2018-02-04T14:46:13.210Z,0.10
2018-02-04T14:48:41.127Z,0.10
2018-02-04T14:51:10.231Z,0.10
2018-02-04T14:53:38.543Z,0.00
2018-02-04T14:56:06.247Z,0.00
2018-02-04T14:58:34.019Z,0.00
2018-02-04T15:01:01.739Z,0.10
2018-02-04T15:03:29.452Z,0.10
2018-02-04T15:05:57.239Z,0.10
2018-02-04T15:08:25.835Z,0.00
2018-02-04T15:10:53.587Z,0.00
2018-02-04T15:13:21.638Z,0.00
2018-02-04T15:15:49.367Z,0.00
2018-02-04T15:18:17.075Z,0.00
2018-02-04T15:20:45.555Z,0.10
2018-02-04T15:23:14.208Z,-0.10
2018-02-04T15:25:42.236Z,-0.10
2018-02-04T15:28:10.074Z,0.00
2018-02-04T15:30:37.883Z,0.00
2018-02-04T15:33:05.575Z,0.00
2018-02-04T15:35:33.263Z,-0.10
2018-02-04T15:38:01.755Z,0.20
2018-02-04T15:40:29.622Z,0.20
2018-02-04T15:42:58.295Z,0.20
2018-02-04T15:45:25.983Z,0.20
2018-02-04T15:47:54.187Z,0.20
2018-02-04T15:50:22.015Z,0.20
2018-02-04T15:52:49.708Z,0.10
2018-02-04T15:55:17.392Z,0.10
2018-02-04T15:57:45.156Z,0.10
2018-02-04T16:00:12.859Z,0.10
2018-02-04T16:02:40.548Z,0.10
2018-02-04T16:05:08.315Z,0.10
2018-02-04T16:07:36.077Z,0.00
2018-02-04T16:10:03.792Z,0.00
2018-02-04T16:12:31.523Z,0.00
2018-02-04T16:14:59.211Z,0.00
2018-02-04T16:17:26.949Z,-0.10
2018-02-04T16:19:54.668Z,-0.10
2018-02-04T16:22:22.480Z,-0.20
2018-02-04T16:24:51.011Z,-0.20
2018-02-04T16:27:18.729Z,-0.20
2018-02-04T16:29:47.210Z,-0.10
2018-02-04T16:32:15.711Z,-0.20
2018-02-04T16:34:43.404Z,-0.20
2018-02-04T16:37:11.487Z,-0.30
2018-02-04T16:39:39.276Z,-0.20
2018-02-04T16:42:06.968Z,-0.20
2018-02-04T16:44:34.802Z,-0.20
2018-02-04T16:47:03.268Z,-0.20
2018-02-04T16:49:30.983Z,-0.20
2018-02-04T16:51:58.752Z,-0.20
2018-02-04T16:54:27.294Z,-0.20
2018-02-04T16:56:55.068Z,-0.20
2018-02-04T16:59:23.548Z,-0.30
2018-02-04T17:01:52.023Z,-0.30
2018-02-04T17:04:20.501Z,-0.30
2018-02-04T17:09:21.774Z,-0.30
2018-02-04T17:11:49.471Z,-0.30
2018-02-04T17:14:17.159Z,-0.30
2018-02-04T17:16:44.868Z,-0.30
2018-02-04T17:19:12.572Z,-0.40
2018-02-04T17:21:40.283Z,-0.40
2018-02-04T17:24:07.995Z,-0.40
2018-02-04T17:26:35.731Z,-0.40
2018-02-04T17:29:03.504Z,-0.50
2018-02-04T17:31:31.193Z,-0.40
2018-02-04T17:33:58.880Z,-0.30
2018-02-04T17:36:27.372Z,-0.30
2018-02-04T17:38:55.096Z,-0.30
2018-02-04T17:41:22.841Z,-0.30
2018-02-04T17:43:50.555Z,-0.30
2018-02-04T17:46:18.267Z,-0.40
2018-02-04T17:48:46.029Z,-0.40
2018-02-04T17:51:13.747Z,-0.30
2018-02-04T17:53:41.435Z,-0.30
2018-02-04T17:56:09.144Z,-0.40
2018-02-04T17:58:36.832Z,-0.40
2018-02-04T18:01:04.597Z,-0.30
2018-02-04T18:03:32.292Z,-0.30
2018-02-04T18:06:00.018Z,-0.20
2018-02-04T18:08:27.827Z,-0.30
2018-02-04T18:10:55.519Z,-0.20
2018-02-04T18:13:24.051Z,-0.30
2018-02-04T18:15:51.833Z,-0.30
2018-02-04T18:18:19.524Z,-0.30
2018-02-04T18:20:48.015Z,-0.40
2018-02-04T18:23:16.471Z,-0.50
2018-02-04T18:25:44.220Z,-0.50
2018-02-04T18:28:11.935Z,-0.40
2018-02-04T18:30:39.627Z,-0.40
2018-02-04T18:33:07.363Z,-0.50
2018-02-04T18:35:35.051Z,-0.40
2018-02-04T18:38:02.789Z,-0.50
2018-02-04T18:40:30.488Z,-0.50
2018-02-04T18:42:58.179Z,-0.40
2018-02-04T18:45:26.683Z,-0.40
2018-02-04T18:47:54.593Z,-0.50
2018-02-04T18:50:23.079Z,-0.40
2018-02-04T18:52:50.832Z,-0.40
2018-02-04T18:55:18.551Z,-0.30
2018-02-04T18:57:46.275Z,-0.20
2018-02-04T19:00:14.051Z,-0.20
2018-02-04T19:02:42.555Z,-0.20
2018-02-04T19:05:10.268Z,-0.30
2018-02-04T19:07:38.752Z,-0.30
2018-02-04T19:10:06.499Z,-0.30
2018-02-04T19:12:34.192Z,-0.30
2018-02-04T19:15:01.889Z,-0.30
2018-02-04T19:17:29.619Z,-0.20
2018-02-04T19:19:57.336Z,-0.20
2018-02-04T19:22:25.034Z,-0.40
2018-02-04T19:24:52.813Z,-0.30
2018-02-04T19:27:21.276Z,-0.20
2018-02-04T19:29:48.968Z,-0.20
2018-02-04T19:32:17.484Z,-0.30
2018-02-04T19:34:45.179Z,-0.40
2018-02-04T19:37:12.924Z,-0.30
2018-02-04T19:39:40.650Z,-0.20
2018-02-04T19:42:08.345Z,-0.30
2018-02-04T19:44:36.096Z,-0.30
2018-02-04T19:47:03.795Z,-0.40
2018-02-04T19:49:31.527Z,-0.30
2018-02-04T19:51:59.462Z,-0.40
2018-02-04T19:54:27.174Z,-0.30
2018-02-04T19:56:55.042Z,-0.30
2018-02-04T19:59:22.827Z,-0.30
2018-02-04T20:01:51.384Z,-0.50
2018-02-04T20:04:20.192Z,-0.70
2018-02-04T20:06:48.230Z,-0.70
2018-02-04T20:09:17.220Z,-0.70
2018-02-04T20:11:45.188Z,-0.70
2018-02-04T20:14:12.952Z,-0.80
2018-02-04T20:16:41.226Z,-0.80
2018-02-04T20:19:10.218Z,-0.90
2018-02-04T20:21:38.287Z,-0.90
2018-02-04T20:24:06.975Z,-0.90
2018-02-04T20:26:34.837Z,-0.90
2018-02-04T20:29:02.600Z,-0.90
2018-02-04T20:31:30.363Z,-1.00
2018-02-04T20:34:10.311Z,-1.20
2018-02-04T20:36:38.074Z,-1.30
2018-02-04T20:39:05.942Z,-1.50
2018-02-04T20:41:33.716Z,-1.60
2018-02-04T20:44:02.285Z,-1.70
2018-02-04T20:46:30.149Z,-1.70
2018-02-04T20:48:58.060Z,-1.80
2018-02-04T20:51:26.538Z,-2.00
2018-02-04T20:53:55.005Z,-2.00
2018-02-04T20:56:23.104Z,-2.10
2018-02-04T20:58:50.791Z,-2.00
2018-02-04T21:01:18.640Z,-2.10
2018-02-04T21:03:46.331Z,-2.20
2018-02-04T21:06:14.050Z,-2.30
2018-02-04T21:08:41.767Z,-2.30
2018-02-04T21:11:09.499Z,-2.40
2018-02-04T21:13:37.224Z,-2.40
2018-02-04T21:16:05.752Z,-2.40
2018-02-04T21:18:33.464Z,-2.40
2018-02-04T21:21:01.943Z,-2.70
2018-02-04T21:23:30.444Z,-2.90
2018-02-04T21:25:58.201Z,-2.90
2018-02-04T21:28:25.888Z,-3.00
2018-02-04T21:30:53.608Z,-3.00
2018-02-04T21:33:22.107Z,-3.10
2018-02-04T21:35:49.824Z,-3.10
2018-02-04T21:38:17.544Z,-3.20
2018-02-04T21:40:45.299Z,-3.30
2018-02-04T21:43:13.007Z,-3.30
2018-02-04T21:45:40.700Z,-3.30
2018-02-04T21:48:09.227Z,-3.40
2018-02-04T21:50:36.959Z,-3.40
2018-02-04T21:53:04.654Z,-3.50
2018-02-04T21:55:32.414Z,-3.50
2018-02-04T21:58:00.107Z,-3.60
2018-02-04T22:00:28.079Z,-3.70
2018-02-04T22:02:55.850Z,-3.70
2018-02-04T22:05:24.315Z,-4.00
2018-02-04T22:07:52.009Z,-4.00
2018-02-04T22:10:19.822Z,-4.00
2018-02-04T22:12:48.283Z,-4.10
2018-02-04T22:15:16.163Z,-4.10
2018-02-04T22:17:43.884Z,-4.10
2018-02-04T22:20:11.595Z,-4.10
2018-02-04T22:22:39.311Z,-4.20
2018-02-04T22:25:07.031Z,-4.30
2018-02-04T22:27:34.724Z,-4.30
2018-02-04T22:30:03.203Z,-4.30
2018-02-04T22:32:31.667Z,-4.40
2018-02-04T22:35:00.176Z,-4.50
2018-02-04T22:37:27.923Z,-4.50
2018-02-04T22:39:56.406Z,-4.60
2018-02-04T22:42:24.887Z,-4.60
2018-02-04T22:44:52.643Z,-4.60
2018-02-04T22:47:21.095Z,-4.70
2018-02-04T22:49:48.819Z,-4.70
2018-02-04T22:52:16.563Z,-4.70
2018-02-04T22:54:44.277Z,-4.80
2018-02-04T22:57:12.025Z,-4.90
2018-02-04T22:59:40.015Z,-4.90
2018-02-04T23:02:08.572Z,-4.90
2018-02-04T23:04:36.448Z,-4.90
2018-02-04T23:07:04.416Z,-4.80
2018-02-04T23:09:33.055Z,-4.90
2018-02-04T23:12:00.752Z,-4.90
2018-02-04T23:14:28.520Z,-4.90
2018-02-04T23:16:56.216Z,-4.90
2018-02-04T23:19:24.675Z,-4.90
2018-02-04T23:21:52.439Z,-4.90
2018-02-04T23:24:20.135Z,-5.00
2018-02-04T23:26:47.850Z,-5.00
2018-02-04T23:29:15.591Z,-5.10
